Time,TemperatureF,DewpointF,PressureIn,WindDirection,WindDirectionDegrees,WindSpeedMPH,WindSpeedGustMPH,Humidity,HourlyPrecipIn,Conditions,Clouds,dailyrainin,SoftwareType,DateUTC
2013-02-01 00:14:00,37.0,16.6,30.09,NNW,337,0.0,-999.0,43,-99.99,,,0.00,Acu-Link.com,2013-02-01 07:14:00,
2013-02-01 00:29:00,36.9,16.0,30.09,NNW,337,0.0,-999.0,42,-99.99,,,0.00,Acu-Link.com,2013-02-01 07:29:00,
2013-02-01 00:44:00,36.3,15.4,30.10,NNW,337,0.0,-999.0,42,-99.99,,,0.00,Acu-Link.com,2013-02-01 07:44:00,
2013-02-01 00:59:00,35.1,14.3,30.10,NNW,337,0.0,-999.0,42,-99.99,,,0.00,Acu-Link.com,2013-02-01 07:59:00,
2013-02-01 01:14:00,36.0,15.7,30.11,NNW,337,0.0,-999.0,43,-99.99,,,0.00,Acu-Link.com,2013-02-01 08:14:00,
2013-02-01 01:29:00,34.3,15.2,30.10,NNW,337,0.0,-999.0,45,-99.99,,,0.00,Acu-Link.com,2013-02-01 08:29:00,
2013-02-01 01:45:00,34.9,15.7,30.10,NNW,337,0.0,-999.0,45,-99.99,,,0.00,Acu-Link.com,2013-02-01 08:45:00,
2013-02-01 02:00:00,34.9,15.7,30.10,NNW,337,0.0,-999.0,45,-99.99,,,0.00,Acu-Link.com,2013-02-01 09:00:00,
2013-02-01 02:17:00,34.9,15.7,30.10,NNW,337,0.0,-999.0,45,-99.99,,,0.00,Acu-Link.com,2013-02-01 09:17:00,
2013-02-01 02:32:00,34.9,15.7,30.10,NNW,337,0.0,-999.0,45,-99.99,,,0.00,Acu-Link.com,2013-02-01 09:32:00,
2013-02-01 02:47:00,34.7,16.6,30.09,NNW,337,3.2,-999.0,47,-99.99,,,0.00,Acu-Link.com,2013-02-01 09:47:00,
2013-02-01 03:03:00,34.2,16.1,30.09,NNW,337,0.0,-999.0,47,-99.99,,,0.00,Acu-Link.com,2013-02-01 10:03:00,
2013-02-01 03:18:00,34.2,16.1,30.09,NNW,337,0.0,-999.0,47,-99.99,,,0.00,Acu-Link.com,2013-02-01 10:18:00,
2013-02-01 03:33:00,33.4,15.4,30.07,NNW,337,0.0,-999.0,47,-99.99,,,0.00,Acu-Link.com,2013-02-01 10:33:00,
2013-02-01 03:48:00,34.0,15.4,30.08,NNW,337,1.1,-999.0,46,-99.99,,,0.00,Acu-Link.com,2013-02-01 10:48:00,
2013-02-01 04:03:00,33.8,15.2,30.08,NNW,337,0.0,-999.0,46,-99.99,,,0.00,Acu-Link.com,2013-02-01 11:03:00,
2013-02-01 04:18:00,34.0,15.9,30.09,NNW,337,0.0,-999.0,47,-99.99,,,0.00,Acu-Link.com,2013-02-01 11:18:00,
2013-02-01 04:41:00,33.1,15.1,30.09,NNW,337,3.2,-999.0,47,-99.99,,,0.00,Acu-Link.com,2013-02-01 11:41:00,
2013-02-01 04:56:00,32.7,15.2,30.09,NNW,337,4.7,-999.0,48,-99.99,,,0.00,Acu-Link.com,2013-02-01 11:56:00,
2013-02-01 05:11:00,32.4,14.4,30.09,NNW,337,3.7,-999.0,47,-99.99,,,0.00,Acu-Link.com,2013-02-01 12:11:00,
2013-02-01 05:26:00,32.2,14.3,30.09,NNW,337,0.0,-999.0,47,-99.99,,,0.00,Acu-Link.com,2013-02-01 12:26:00,
2013-02-01 05:45:00,31.8,13.9,30.09,NNW,337,3.2,-999.0,47,-99.99,,,0.00,Acu-Link.com,2013-02-01 12:45:00,
2013-02-01 06:00:00,31.5,13.6,30.08,NNW,337,5.3,-999.0,47,-99.99,,,0.00,Acu-Link.com,2013-02-01 13:00:00,
2013-02-01 06:18:00,31.8,13.9,30.09,NNW,337,3.2,-999.0,47,-99.99,,,0.00,Acu-Link.com,2013-02-01 13:18:00,
2013-02-01 06:33:00,30.6,13.3,30.09,NNW,337,4.7,-999.0,48,-99.99,,,0.00,Acu-Link.com,2013-02-01 13:33:00,
2013-02-01 06:49:00,30.6,13.3,30.09,NNW,337,4.7,-999.0,48,-99.99,,,0.00,Acu-Link.com,2013-02-01 13:49:00,
2013-02-01 07:11:00,31.8,13.9,30.10,NNW,337,6.8,-999.0,47,-99.99,,,0.00,Acu-Link.com,2013-02-01 14:11:00,
2013-02-01 07:27:00,33.6,15.5,30.11,NNW,337,5.8,-999.0,47,-99.99,,,0.00,Acu-Link.com,2013-02-01 14:27:00,
2013-02-01 07:42:00,35.2,15.5,30.11,NNW,337,5.3,-999.0,44,-99.99,,,0.00,Acu-Link.com,2013-02-01 14:42:00,
2013-02-01 07:57:00,36.7,16.3,30.10,North,0,4.7,-999.0,43,-99.99,,,0.00,Acu-Link.com,2013-02-01 14:57:00,
2013-02-01 08:12:00,37.8,16.2,30.10,North,0,4.7,-999.0,41,-99.99,,,0.00,Acu-Link.com,2013-02-01 15:12:00,
2013-02-01 08:30:00,38.3,16.7,30.11,North,0,8.3,-999.0,41,-99.99,,,0.00,Acu-Link.com,2013-02-01 15:30:00,
2013-02-01 08:45:00,39.4,16.5,30.11,NNE,22,7.3,-999.0,39,-99.99,,,0.00,Acu-Link.com,2013-02-01 15:45:00,
2013-02-01 09:01:00,39.7,16.2,30.12,NNW,337,6.8,-999.0,38,-99.99,,,0.00,Acu-Link.com,2013-02-01 16:01:00,
2013-02-01 09:16:00,41.0,16.7,30.13,NW,315,7.3,-999.0,37,-99.99,,,0.00,Acu-Link.com,2013-02-01 16:16:00,
2013-02-01 09:31:00,43.7,17.9,30.13,NNE,22,6.8,-999.0,35,-99.99,,,0.00,Acu-Link.com,2013-02-01 16:31:00,
2013-02-01 09:46:00,46.2,18.0,30.13,NNW,337,6.3,-999.0,32,-99.99,,,0.00,Acu-Link.com,2013-02-01 16:46:00,
2013-02-01 10:01:00,48.4,19.2,30.13,NNE,22,6.3,-999.0,31,-99.99,,,0.00,Acu-Link.com,2013-02-01 17:01:00,
2013-02-01 10:16:00,51.6,18.7,30.14,NE,45,4.7,-999.0,27,-99.99,,,0.00,Acu-Link.com,2013-02-01 17:16:00,
2013-02-01 10:32:00,55.9,18.7,30.14,NE,45,4.2,-999.0,23,-99.99,,,0.00,Acu-Link.com,2013-02-01 17:32:00,
2013-02-01 10:47:00,57.2,17.6,30.13,North,0,2.2,-999.0,21,-99.99,,,0.00,Acu-Link.com,2013-02-01 17:47:00,
2013-02-01 11:02:00,61.9,19.2,30.13,NNW,337,0.0,-999.0,19,-99.99,,,0.00,Acu-Link.com,2013-02-01 18:02:00,
2013-02-01 11:17:00,63.9,18.2,30.12,WNW,292,3.7,-999.0,17,-99.99,,,0.00,Acu-Link.com,2013-02-01 18:17:00,
2013-02-01 11:32:00,65.3,18.0,30.11,WNW,292,1.1,-999.0,16,-99.99,,,0.00,Acu-Link.com,2013-02-01 18:32:00,
2013-02-01 11:47:00,63.7,16.7,30.10,SW,225,3.2,-999.0,16,-99.99,,,0.00,Acu-Link.com,2013-02-01 18:47:00,
2013-02-01 12:03:00,66.2,17.2,30.10,West,270,2.7,-999.0,15,-99.99,,,0.00,Acu-Link.com,2013-02-01 19:03:00,
2013-02-01 12:18:00,66.6,15.9,30.08,ENE,67,1.1,-999.0,14,-99.99,,,0.00,Acu-Link.com,2013-02-01 19:18:00,
2013-02-01 12:33:00,68.2,13.7,30.07,West,270,3.2,-999.0,12,-99.99,,,0.00,Acu-Link.com,2013-02-01 19:33:00,
2013-02-01 12:48:00,68.5,15.7,30.06,SW,225,0.0,-999.0,13,-99.99,,,0.00,Acu-Link.com,2013-02-01 19:48:00,
2013-02-01 13:03:00,66.9,14.5,30.05,South,180,4.2,-999.0,13,-99.99,,,0.00,Acu-Link.com,2013-02-01 20:03:00,
2013-02-01 13:18:00,67.8,15.2,30.04,WNW,292,4.7,-999.0,13,-99.99,,,0.00,Acu-Link.com,2013-02-01 20:18:00,
2013-02-01 13:33:00,66.6,14.2,30.04,South,180,5.3,-999.0,13,-99.99,,,0.00,Acu-Link.com,2013-02-01 20:33:00,
2013-02-01 13:48:00,67.1,14.6,30.04,SW,225,4.2,-999.0,13,-99.99,,,0.00,Acu-Link.com,2013-02-01 20:48:00,
2013-02-01 14:03:00,65.3,14.9,30.03,South,180,1.7,-999.0,14,-99.99,,,0.00,Acu-Link.com,2013-02-01 21:03:00,
2013-02-01 14:19:00,65.5,15.1,30.02,South,180,4.7,-999.0,14,-99.99,,,0.00,Acu-Link.com,2013-02-01 21:19:00,
2013-02-01 14:34:00,67.5,14.9,30.02,WSW,247,1.7,-999.0,13,-99.99,,,0.00,Acu-Link.com,2013-02-01 21:34:00,
2013-02-01 14:49:00,67.3,14.8,30.01,SW,225,6.8,-999.0,13,-99.99,,,0.00,Acu-Link.com,2013-02-01 21:49:00,
2013-02-01 15:04:00,67.6,15.0,30.01,WSW,247,3.7,-999.0,13,-99.99,,,0.00,Acu-Link.com,2013-02-01 22:04:00,
2013-02-01 15:19:00,68.4,11.9,30.00,SW,225,4.2,-999.0,11,-99.99,,,0.00,Acu-Link.com,2013-02-01 22:19:00,
2013-02-01 15:34:00,67.1,10.9,30.00,SW,225,5.8,-999.0,11,-99.99,,,0.00,Acu-Link.com,2013-02-01 22:34:00,
2013-02-01 15:49:00,66.9,12.7,30.00,WSW,247,8.9,-999.0,12,-99.99,,,0.00,Acu-Link.com,2013-02-01 22:49:00,
2013-02-01 16:04:00,67.3,13.0,30.00,West,270,4.2,-999.0,12,-99.99,,,0.00,Acu-Link.com,2013-02-01 23:04:00,
2013-02-01 16:20:00,66.0,12.0,30.00,SW,225,4.7,-999.0,12,-99.99,,,0.00,Acu-Link.com,2013-02-01 23:20:00,
2013-02-01 16:35:00,65.1,13.1,30.00,West,270,4.7,-999.0,13,-99.99,,,0.00,Acu-Link.com,2013-02-01 23:35:00,
2013-02-01 16:50:00,65.7,13.5,30.01,SW,225,5.3,-999.0,13,-99.99,,,0.00,Acu-Link.com,2013-02-01 23:50:00,
2013-02-01 17:05:00,63.0,13.1,30.00,SW,225,5.3,-999.0,14,-99.99,,,0.00,Acu-Link.com,2013-02-02 00:05:00,
2013-02-01 17:20:00,61.5,13.4,30.01,SW,225,4.2,-999.0,15,-99.99,,,0.00,Acu-Link.com,2013-02-02 00:20:00,
2013-02-01 17:36:00,59.7,13.5,30.00,SW,225,0.0,-999.0,16,-99.99,,,0.00,Acu-Link.com,2013-02-02 00:36:00,
2013-02-01 17:51:00,57.2,14.1,30.01,SW,225,0.0,-999.0,18,-99.99,,,0.00,Acu-Link.com,2013-02-02 00:51:00,
2013-02-01 18:06:00,55.8,14.2,30.02,SW,225,0.0,-999.0,19,-99.99,,,0.00,Acu-Link.com,2013-02-02 01:06:00,
2013-02-01 18:21:00,54.9,13.4,30.02,SW,225,0.0,-999.0,19,-99.99,,,0.00,Acu-Link.com,2013-02-02 01:21:00,
2013-02-01 18:36:00,53.8,13.7,30.03,SW,225,0.0,-999.0,20,-99.99,,,0.00,Acu-Link.com,2013-02-02 01:36:00,
2013-02-01 18:52:00,53.4,14.5,30.03,SW,225,0.0,-999.0,21,-99.99,,,0.00,Acu-Link.com,2013-02-02 01:52:00,
2013-02-01 19:08:00,52.0,13.3,30.04,SW,225,0.0,-999.0,21,-99.99,,,0.00,Acu-Link.com,2013-02-02 02:08:00,
2013-02-01 19:23:00,52.5,14.8,30.04,SW,225,0.0,-999.0,22,-99.99,,,0.00,Acu-Link.com,2013-02-02 02:23:00,
2013-02-01 19:39:00,52.5,14.8,30.05,SW,225,0.0,-999.0,22,-99.99,,,0.00,Acu-Link.com,2013-02-02 02:39:00,
2013-02-01 20:00:00,51.4,14.9,30.05,SW,225,0.0,-999.0,23,-99.99,,,0.00,Acu-Link.com,2013-02-02 03:00:00,
2013-02-01 20:16:00,51.8,15.2,30.06,SW,225,0.0,-999.0,23,-99.99,,,0.00,Acu-Link.com,2013-02-02 03:16:00,
2013-02-01 20:32:00,50.2,14.8,30.06,SW,225,0.0,-999.0,24,-99.99,,,0.00,Acu-Link.com,2013-02-02 03:32:00,
2013-02-01 20:48:00,49.3,15.0,30.06,SW,225,0.0,-999.0,25,-99.99,,,0.00,Acu-Link.com,2013-02-02 03:48:00,
2013-02-01 21:03:00,49.1,15.7,30.06,SW,225,1.7,-999.0,26,-99.99,,,0.00,Acu-Link.com,2013-02-02 04:03:00,
2013-02-01 21:19:00,50.4,15.9,30.06,SW,225,2.7,-999.0,25,-99.99,,,0.00,Acu-Link.com,2013-02-02 04:19:00,
2013-02-01 21:34:00,52.3,15.6,30.06,WSW,247,3.7,-999.0,23,-99.99,,,0.00,Acu-Link.com,2013-02-02 04:34:00,
2013-02-01 21:49:00,53.2,15.4,30.06,West,270,4.7,-999.0,22,-99.99,,,0.00,Acu-Link.com,2013-02-02 04:49:00,
2013-02-01 22:04:00,53.2,14.3,30.06,ESE,112,1.1,-999.0,21,-99.99,,,0.00,Acu-Link.com,2013-02-02 05:04:00,
2013-02-01 22:19:00,50.5,15.1,30.07,ESE,112,0.0,-999.0,24,-99.99,,,0.00,Acu-Link.com,2013-02-02 05:19:00,
2013-02-01 22:34:00,51.4,16.8,30.08,West,270,5.3,-999.0,25,-99.99,,,0.00,Acu-Link.com,2013-02-02 05:34:00,
2013-02-01 22:49:00,52.5,15.8,30.08,SW,225,2.7,-999.0,23,-99.99,,,0.00,Acu-Link.com,2013-02-02 05:49:00,
2013-02-01 23:04:00,51.1,15.6,30.07,SW,225,0.0,-999.0,24,-99.99,,,0.00,Acu-Link.com,2013-02-02 06:04:00,
2013-02-01 23:19:00,47.8,15.5,30.08,SW,225,0.0,-999.0,27,-99.99,,,0.00,Acu-Link.com,2013-02-02 06:19:00,
2013-02-01 23:35:00,46.4,15.9,30.08,SW,225,1.1,-999.0,29,-99.99,,,0.00,Acu-Link.com,2013-02-02 06:35:00,
2013-02-01 23:50:00,45.9,16.2,30.08,SW,225,0.0,-999.0,30,-99.99,,,0.00,Acu-Link.com,2013-02-02 06:50:00,